sensor_id;sensor_type;location;lat;lon;timestamp;P1;durP1;ratioP1;P2;durP2;ratioP2
77018;SDS011;66044;53.142;17.962;2023-06-19T00:00:12;13.40;;;8.80;;
77018;SDS011;66044;53.142;17.962;2023-06-19T00:02:59;12.70;;;8.20;;
77018;SDS011;66044;53.142;17.962;2023-06-19T00:05:26;14.40;;;9.30;;
77018;SDS011;66044;53.142;17.962;2023-06-19T00:07:52;14.60;;;9.40;;
77018;SDS011;66044;53.142;17.962;2023-06-19T00:10:21;14.70;;;9.10;;
77018;SDS011;66044;53.142;17.962;2023-06-19T00:12:48;14.00;;;8.90;;
77018;SDS011;66044;53.142;17.962;2023-06-19T00:15:14;14.60;;;9.00;;
77018;SDS011;66044;53.142;17.962;2023-06-19T00:17:41;12.90;;;8.30;;
77018;SDS011;66044;53.142;17.962;2023-06-19T00:20:08;10.90;;;7.60;;
77018;SDS011;66044;53.142;17.962;2023-06-19T00:22:35;13.50;;;8.50;;
77018;SDS011;66044;53.142;17.962;2023-06-19T00:25:02;12.70;;;8.20;;
77018;SDS011;66044;53.142;17.962;2023-06-19T00:27:29;12.30;;;8.20;;
77018;SDS011;66044;53.142;17.962;2023-06-19T00:29:55;12.10;;;8.30;;
77018;SDS011;66044;53.142;17.962;2023-06-19T00:32:28;12.80;;;7.80;;
77018;SDS011;66044;53.142;17.962;2023-06-19T00:34:55;12.40;;;8.10;;
77018;SDS011;66044;53.142;17.962;2023-06-19T00:37:22;11.50;;;7.70;;
77018;SDS011;66044;53.142;17.962;2023-06-19T00:39:48;12.50;;;7.70;;
77018;SDS011;66044;53.142;17.962;2023-06-19T00:42:15;11.40;;;8.30;;
77018;SDS011;66044;53.142;17.962;2023-06-19T00:44:41;12.70;;;8.50;;
77018;SDS011;66044;53.142;17.962;2023-06-19T00:47:09;12.20;;;8.80;;
77018;SDS011;66044;53.142;17.962;2023-06-19T00:49:36;13.00;;;9.50;;
77018;SDS011;66044;53.142;17.962;2023-06-19T00:52:03;12.10;;;8.80;;
77018;SDS011;66044;53.142;17.962;2023-06-19T00:54:29;13.20;;;9.50;;
77018;SDS011;66044;53.142;17.962;2023-06-19T00:56:57;12.70;;;9.30;;
77018;SDS011;66044;53.142;17.962;2023-06-19T00:59:24;12.50;;;9.00;;
77018;SDS011;66044;53.142;17.962;2023-06-19T01:01:51;14.00;;;8.00;;
77018;SDS011;66044;53.142;17.962;2023-06-19T01:04:18;11.40;;;7.70;;
77018;SDS011;66044;53.142;17.962;2023-06-19T01:06:52;10.60;;;8.00;;
77018;SDS011;66044;53.142;17.962;2023-06-19T01:09:35;10.80;;;7.00;;
77018;SDS011;66044;53.142;17.962;2023-06-19T01:12:13;10.60;;;7.00;;
77018;SDS011;66044;53.142;17.962;2023-06-19T01:14:58;13.50;;;7.60;;
77018;SDS011;66044;53.142;17.962;2023-06-19T01:17:27;11.10;;;7.60;;
77018;SDS011;66044;53.142;17.962;2023-06-19T01:19:55;10.20;;;7.10;;
77018;SDS011;66044;53.142;17.962;2023-06-19T01:22:32;13.30;;;7.40;;
77018;SDS011;66044;53.142;17.962;2023-06-19T01:24:58;11.00;;;7.30;;
77018;SDS011;66044;53.142;17.962;2023-06-19T01:27:25;10.10;;;6.90;;
77018;SDS011;66044;53.142;17.962;2023-06-19T01:29:56;12.10;;;8.00;;
77018;SDS011;66044;53.142;17.962;2023-06-19T01:32:31;12.30;;;7.90;;
77018;SDS011;66044;53.142;17.962;2023-06-19T01:35:03;13.40;;;9.10;;
77018;SDS011;66044;53.142;17.962;2023-06-19T01:37:32;13.40;;;9.80;;
77018;SDS011;66044;53.142;17.962;2023-06-19T01:39:59;13.50;;;9.20;;
77018;SDS011;66044;53.142;17.962;2023-06-19T01:42:29;13.30;;;9.70;;
77018;SDS011;66044;53.142;17.962;2023-06-19T01:44:56;14.70;;;9.50;;
77018;SDS011;66044;53.142;17.962;2023-06-19T01:47:23;13.30;;;9.30;;
77018;SDS011;66044;53.142;17.962;2023-06-19T01:49:49;13.70;;;9.10;;
77018;SDS011;66044;53.142;17.962;2023-06-19T01:52:16;14.20;;;9.30;;
77018;SDS011;66044;53.142;17.962;2023-06-19T01:54:42;13.10;;;9.00;;
77018;SDS011;66044;53.142;17.962;2023-06-19T01:57:09;11.90;;;8.60;;
77018;SDS011;66044;53.142;17.962;2023-06-19T01:59:36;11.10;;;8.00;;
77018;SDS011;66044;53.142;17.962;2023-06-19T02:02:02;11.90;;;8.50;;
77018;SDS011;66044;53.142;17.962;2023-06-19T02:04:30;11.80;;;8.30;;
77018;SDS011;66044;53.142;17.962;2023-06-19T02:06:56;11.40;;;8.10;;
77018;SDS011;66044;53.142;17.962;2023-06-19T02:09:23;10.30;;;7.60;;
77018;SDS011;66044;53.142;17.962;2023-06-19T02:11:49;11.40;;;7.40;;
77018;SDS011;66044;53.142;17.962;2023-06-19T02:14:16;10.30;;;7.20;;
77018;SDS011;66044;53.142;17.962;2023-06-19T02:16:42;11.00;;;6.80;;
77018;SDS011;66044;53.142;17.962;2023-06-19T02:19:12;10.50;;;7.00;;
77018;SDS011;66044;53.142;17.962;2023-06-19T02:21:39;9.90;;;7.00;;
77018;SDS011;66044;53.142;17.962;2023-06-19T02:24:05;9.50;;;6.20;;
77018;SDS011;66044;53.142;17.962;2023-06-19T02:26:32;11.10;;;7.00;;
77018;SDS011;66044;53.142;17.962;2023-06-19T02:28:58;9.10;;;6.60;;
77018;SDS011;66044;53.142;17.962;2023-06-19T02:31:25;12.20;;;7.40;;
77018;SDS011;66044;53.142;17.962;2023-06-19T02:33:51;10.40;;;6.80;;
77018;SDS011;66044;53.142;17.962;2023-06-19T02:36:18;11.10;;;6.80;;
77018;SDS011;66044;53.142;17.962;2023-06-19T02:38:47;10.80;;;6.20;;
77018;SDS011;66044;53.142;17.962;2023-06-19T02:41:14;9.30;;;6.60;;
77018;SDS011;66044;53.142;17.962;2023-06-19T02:43:42;10.30;;;7.30;;
77018;SDS011;66044;53.142;17.962;2023-06-19T02:46:09;11.70;;;7.40;;
77018;SDS011;66044;53.142;17.962;2023-06-19T02:48:35;12.20;;;7.90;;
77018;SDS011;66044;53.142;17.962;2023-06-19T02:51:02;10.50;;;7.30;;
77018;SDS011;66044;53.142;17.962;2023-06-19T02:53:28;11.10;;;7.70;;
77018;SDS011;66044;53.142;17.962;2023-06-19T02:55:55;12.10;;;7.90;;
77018;SDS011;66044;53.142;17.962;2023-06-19T02:58:21;12.70;;;8.80;;
77018;SDS011;66044;53.142;17.962;2023-06-19T03:00:48;12.10;;;8.20;;
77018;SDS011;66044;53.142;17.962;2023-06-19T03:03:14;10.10;;;7.10;;
77018;SDS011;66044;53.142;17.962;2023-06-19T03:05:41;13.10;;;7.40;;
77018;SDS011;66044;53.142;17.962;2023-06-19T03:08:07;10.70;;;7.60;;
77018;SDS011;66044;53.142;17.962;2023-06-19T03:10:34;11.70;;;7.90;;
77018;SDS011;66044;53.142;17.962;2023-06-19T03:13:00;12.00;;;8.20;;
77018;SDS011;66044;53.142;17.962;2023-06-19T03:15:26;10.40;;;7.60;;
77018;SDS011;66044;53.142;17.962;2023-06-19T03:17:53;10.30;;;7.70;;
77018;SDS011;66044;53.142;17.962;2023-06-19T03:20:20;10.90;;;8.10;;
77018;SDS011;66044;53.142;17.962;2023-06-19T03:22:46;11.90;;;8.10;;
77018;SDS011;66044;53.142;17.962;2023-06-19T03:25:13;13.10;;;8.40;;
77018;SDS011;66044;53.142;17.962;2023-06-19T03:27:40;11.10;;;7.50;;
77018;SDS011;66044;53.142;17.962;2023-06-19T03:30:07;11.40;;;8.10;;
77018;SDS011;66044;53.142;17.962;2023-06-19T03:32:34;13.60;;;9.40;;
77018;SDS011;66044;53.142;17.962;2023-06-19T03:35:01;13.50;;;9.00;;
77018;SDS011;66044;53.142;17.962;2023-06-19T03:37:28;12.60;;;9.00;;
77018;SDS011;66044;53.142;17.962;2023-06-19T03:39:55;13.40;;;9.10;;
77018;SDS011;66044;53.142;17.962;2023-06-19T03:42:22;12.30;;;9.60;;
77018;SDS011;66044;53.142;17.962;2023-06-19T03:44:48;14.10;;;10.30;;
77018;SDS011;66044;53.142;17.962;2023-06-19T03:47:15;15.70;;;11.90;;
77018;SDS011;66044;53.142;17.962;2023-06-19T03:49:42;14.90;;;10.60;;
77018;SDS011;66044;53.142;17.962;2023-06-19T03:52:09;14.30;;;10.20;;
77018;SDS011;66044;53.142;17.962;2023-06-19T03:54:35;14.00;;;11.40;;
77018;SDS011;66044;53.142;17.962;2023-06-19T03:57:02;14.70;;;11.80;;
77018;SDS011;66044;53.142;17.962;2023-06-19T03:59:28;14.60;;;10.50;;
77018;SDS011;66044;53.142;17.962;2023-06-19T04:01:54;14.20;;;10.00;;
77018;SDS011;66044;53.142;17.962;2023-06-19T04:04:21;13.30;;;10.10;;
77018;SDS011;66044;53.142;17.962;2023-06-19T04:06:47;12.30;;;9.00;;
77018;SDS011;66044;53.142;17.962;2023-06-19T04:09:14;13.50;;;10.10;;
77018;SDS011;66044;53.142;17.962;2023-06-19T04:11:40;11.60;;;9.10;;
77018;SDS011;66044;53.142;17.962;2023-06-19T04:14:07;13.40;;;9.60;;
77018;SDS011;66044;53.142;17.962;2023-06-19T04:16:33;13.00;;;10.20;;
77018;SDS011;66044;53.142;17.962;2023-06-19T04:18:59;12.40;;;10.00;;
77018;SDS011;66044;53.142;17.962;2023-06-19T04:21:26;13.00;;;10.20;;
77018;SDS011;66044;53.142;17.962;2023-06-19T04:23:53;12.00;;;9.30;;
77018;SDS011;66044;53.142;17.962;2023-06-19T04:26:19;12.90;;;9.20;;
77018;SDS011;66044;53.142;17.962;2023-06-19T04:28:47;13.00;;;10.50;;
77018;SDS011;66044;53.142;17.962;2023-06-19T04:31:14;12.60;;;9.60;;
77018;SDS011;66044;53.142;17.962;2023-06-19T04:33:45;14.70;;;10.40;;
77018;SDS011;66044;53.142;17.962;2023-06-19T04:36:11;12.50;;;10.00;;
77018;SDS011;66044;53.142;17.962;2023-06-19T04:38:38;17.20;;;9.10;;
77018;SDS011;66044;53.142;17.962;2023-06-19T04:41:04;11.70;;;9.10;;
77018;SDS011;66044;53.142;17.962;2023-06-19T04:43:31;12.80;;;9.50;;
77018;SDS011;66044;53.142;17.962;2023-06-19T04:45:58;12.90;;;8.90;;
77018;SDS011;66044;53.142;17.962;2023-06-19T04:48:25;12.20;;;9.60;;
77018;SDS011;66044;53.142;17.962;2023-06-19T04:50:52;12.00;;;8.30;;
77018;SDS011;66044;53.142;17.962;2023-06-19T04:53:19;12.10;;;9.10;;
77018;SDS011;66044;53.142;17.962;2023-06-19T04:55:45;11.40;;;8.00;;
77018;SDS011;66044;53.142;17.962;2023-06-19T04:58:11;11.60;;;8.20;;
77018;SDS011;66044;53.142;17.962;2023-06-19T05:00:40;11.70;;;9.30;;
77018;SDS011;66044;53.142;17.962;2023-06-19T05:03:07;11.20;;;8.60;;
77018;SDS011;66044;53.142;17.962;2023-06-19T05:05:33;11.10;;;8.40;;
77018;SDS011;66044;53.142;17.962;2023-06-19T05:08:00;13.20;;;8.10;;
77018;SDS011;66044;53.142;17.962;2023-06-19T05:10:27;10.40;;;8.50;;
77018;SDS011;66044;53.142;17.962;2023-06-19T05:12:54;10.80;;;8.60;;
77018;SDS011;66044;53.142;17.962;2023-06-19T05:15:20;12.30;;;8.30;;
77018;SDS011;66044;53.142;17.962;2023-06-19T05:17:46;11.90;;;8.90;;
77018;SDS011;66044;53.142;17.962;2023-06-19T05:20:13;11.10;;;8.80;;
77018;SDS011;66044;53.142;17.962;2023-06-19T05:22:40;12.20;;;8.80;;
77018;SDS011;66044;53.142;17.962;2023-06-19T05:25:06;14.30;;;9.40;;
77018;SDS011;66044;53.142;17.962;2023-06-19T05:27:34;11.70;;;8.10;;
77018;SDS011;66044;53.142;17.962;2023-06-19T05:30:00;11.00;;;7.30;;
77018;SDS011;66044;53.142;17.962;2023-06-19T05:32:27;10.30;;;8.00;;
77018;SDS011;66044;53.142;17.962;2023-06-19T05:34:54;11.90;;;8.10;;
77018;SDS011;66044;53.142;17.962;2023-06-19T05:37:20;10.00;;;8.00;;
77018;SDS011;66044;53.142;17.962;2023-06-19T05:39:48;12.60;;;8.10;;
77018;SDS011;66044;53.142;17.962;2023-06-19T05:42:15;11.30;;;8.80;;
77018;SDS011;66044;53.142;17.962;2023-06-19T05:44:41;10.10;;;7.50;;
77018;SDS011;66044;53.142;17.962;2023-06-19T05:47:08;10.50;;;8.20;;
77018;SDS011;66044;53.142;17.962;2023-06-19T05:49:34;11.50;;;7.90;;
77018;SDS011;66044;53.142;17.962;2023-06-19T05:52:01;9.30;;;6.70;;
77018;SDS011;66044;53.142;17.962;2023-06-19T05:54:27;9.10;;;6.50;;
77018;SDS011;66044;53.142;17.962;2023-06-19T05:56:53;8.80;;;6.50;;
77018;SDS011;66044;53.142;17.962;2023-06-19T05:59:20;10.00;;;7.00;;
77018;SDS011;66044;53.142;17.962;2023-06-19T06:01:48;8.70;;;7.10;;
77018;SDS011;66044;53.142;17.962;2023-06-19T06:04:16;8.20;;;5.70;;
77018;SDS011;66044;53.142;17.962;2023-06-19T06:06:43;10.40;;;7.00;;
77018;SDS011;66044;53.142;17.962;2023-06-19T06:09:09;8.10;;;6.30;;
77018;SDS011;66044;53.142;17.962;2023-06-19T06:11:38;10.20;;;6.70;;
77018;SDS011;66044;53.142;17.962;2023-06-19T06:14:05;9.20;;;5.90;;
77018;SDS011;66044;53.142;17.962;2023-06-19T06:16:31;9.00;;;5.90;;
77018;SDS011;66044;53.142;17.962;2023-06-19T06:18:57;8.20;;;5.70;;
77018;SDS011;66044;53.142;17.962;2023-06-19T06:21:27;8.30;;;5.10;;
77018;SDS011;66044;53.142;17.962;2023-06-19T06:23:54;9.90;;;5.80;;
77018;SDS011;66044;53.142;17.962;2023-06-19T06:26:20;11.60;;;5.90;;
77018;SDS011;66044;53.142;17.962;2023-06-19T06:28:47;8.70;;;5.30;;
77018;SDS011;66044;53.142;17.962;2023-06-19T06:31:14;7.70;;;4.50;;
77018;SDS011;66044;53.142;17.962;2023-06-19T06:33:41;7.50;;;4.90;;
77018;SDS011;66044;53.142;17.962;2023-06-19T06:36:07;6.10;;;3.60;;
77018;SDS011;66044;53.142;17.962;2023-06-19T06:38:33;8.10;;;4.50;;
77018;SDS011;66044;53.142;17.962;2023-06-19T06:41:00;8.30;;;4.40;;
77018;SDS011;66044;53.142;17.962;2023-06-19T06:43:26;7.10;;;4.60;;
77018;SDS011;66044;53.142;17.962;2023-06-19T06:45:53;8.90;;;5.10;;
77018;SDS011;66044;53.142;17.962;2023-06-19T06:48:20;6.50;;;4.50;;
77018;SDS011;66044;53.142;17.962;2023-06-19T06:50:47;7.10;;;4.40;;
77018;SDS011;66044;53.142;17.962;2023-06-19T06:53:13;6.30;;;3.60;;
77018;SDS011;66044;53.142;17.962;2023-06-19T06:55:40;7.20;;;3.40;;
77018;SDS011;66044;53.142;17.962;2023-06-19T06:58:06;5.70;;;2.70;;
77018;SDS011;66044;53.142;17.962;2023-06-19T07:00:33;5.50;;;2.70;;
77018;SDS011;66044;53.142;17.962;2023-06-19T07:02:59;5.40;;;2.40;;
77018;SDS011;66044;53.142;17.962;2023-06-19T07:05:26;6.70;;;2.80;;
77018;SDS011;66044;53.142;17.962;2023-06-19T07:07:55;5.60;;;2.90;;
77018;SDS011;66044;53.142;17.962;2023-06-19T07:10:21;5.60;;;2.80;;
77018;SDS011;66044;53.142;17.962;2023-06-19T07:12:48;6.20;;;2.70;;
77018;SDS011;66044;53.142;17.962;2023-06-19T07:15:14;8.20;;;3.20;;
77018;SDS011;66044;53.142;17.962;2023-06-19T07:17:41;5.40;;;3.30;;
77018;SDS011;66044;53.142;17.962;2023-06-19T07:20:07;7.50;;;3.90;;
77018;SDS011;66044;53.142;17.962;2023-06-19T07:22:35;8.20;;;3.70;;
77018;SDS011;66044;53.142;17.962;2023-06-19T07:25:01;9.40;;;4.20;;
77018;SDS011;66044;53.142;17.962;2023-06-19T07:27:30;7.60;;;3.40;;
77018;SDS011;66044;53.142;17.962;2023-06-19T07:29:56;5.60;;;2.90;;
77018;SDS011;66044;53.142;17.962;2023-06-19T07:32:23;5.80;;;3.50;;
77018;SDS011;66044;53.142;17.962;2023-06-19T07:34:49;7.80;;;3.40;;
77018;SDS011;66044;53.142;17.962;2023-06-19T07:37:16;7.00;;;3.70;;
77018;SDS011;66044;53.142;17.962;2023-06-19T07:39:46;6.90;;;3.50;;
77018;SDS011;66044;53.142;17.962;2023-06-19T07:42:14;8.20;;;3.50;;
77018;SDS011;66044;53.142;17.962;2023-06-19T07:44:41;6.80;;;3.90;;
77018;SDS011;66044;53.142;17.962;2023-06-19T07:47:09;6.00;;;3.40;;
77018;SDS011;66044;53.142;17.962;2023-06-19T07:49:36;6.60;;;4.20;;
77018;SDS011;66044;53.142;17.962;2023-06-19T07:52:03;6.30;;;4.00;;
77018;SDS011;66044;53.142;17.962;2023-06-19T07:54:30;8.50;;;3.90;;
77018;SDS011;66044;53.142;17.962;2023-06-19T07:56:57;6.80;;;4.10;;
77018;SDS011;66044;53.142;17.962;2023-06-19T07:59:23;9.70;;;3.90;;
77018;SDS011;66044;53.142;17.962;2023-06-19T08:01:50;6.90;;;4.10;;
77018;SDS011;66044;53.142;17.962;2023-06-19T08:04:16;8.20;;;4.20;;
77018;SDS011;66044;53.142;17.962;2023-06-19T08:06:43;8.30;;;4.10;;
77018;SDS011;66044;53.142;17.962;2023-06-19T08:09:09;10.30;;;4.10;;
77018;SDS011;66044;53.142;17.962;2023-06-19T08:11:36;7.80;;;4.30;;
77018;SDS011;66044;53.142;17.962;2023-06-19T08:14:03;7.60;;;4.30;;
77018;SDS011;66044;53.142;17.962;2023-06-19T08:16:29;6.70;;;3.80;;
77018;SDS011;66044;53.142;17.962;2023-06-19T08:18:56;7.70;;;4.30;;
77018;SDS011;66044;53.142;17.962;2023-06-19T08:21:22;7.50;;;4.60;;
77018;SDS011;66044;53.142;17.962;2023-06-19T08:23:49;8.30;;;4.20;;
77018;SDS011;66044;53.142;17.962;2023-06-19T08:26:15;7.30;;;4.30;;
77018;SDS011;66044;53.142;17.962;2023-06-19T08:28:42;7.00;;;3.70;;
77018;SDS011;66044;53.142;17.962;2023-06-19T08:31:08;7.20;;;3.50;;
77018;SDS011;66044;53.142;17.962;2023-06-19T08:33:34;6.60;;;3.60;;
77018;SDS011;66044;53.142;17.962;2023-06-19T08:36:01;6.10;;;3.40;;
77018;SDS011;66044;53.142;17.962;2023-06-19T08:38:28;6.20;;;3.10;;
77018;SDS011;66044;53.142;17.962;2023-06-19T08:40:54;6.30;;;3.10;;
77018;SDS011;66044;53.142;17.962;2023-06-19T08:43:21;6.20;;;3.30;;
77018;SDS011;66044;53.142;17.962;2023-06-19T08:48:37;6.70;;;3.20;;
77018;SDS011;66044;53.142;17.962;2023-06-19T08:51:04;5.90;;;3.10;;
77018;SDS011;66044;53.142;17.962;2023-06-19T08:53:33;6.20;;;3.30;;
77018;SDS011;66044;53.142;17.962;2023-06-19T08:56:02;6.60;;;3.70;;
77018;SDS011;66044;53.142;17.962;2023-06-19T08:58:29;7.70;;;3.80;;
77018;SDS011;66044;53.142;17.962;2023-06-19T09:00:57;8.50;;;3.50;;
77018;SDS011;66044;53.142;17.962;2023-06-19T09:03:25;5.90;;;2.90;;
77018;SDS011;66044;53.142;17.962;2023-06-19T09:05:51;7.80;;;3.90;;
77018;SDS011;66044;53.142;17.962;2023-06-19T09:08:19;7.30;;;3.90;;
77018;SDS011;66044;53.142;17.962;2023-06-19T09:10:58;7.20;;;4.10;;
77018;SDS011;66044;53.142;17.962;2023-06-19T09:13:27;6.70;;;3.70;;
77018;SDS011;66044;53.142;17.962;2023-06-19T09:16:06;7.10;;;4.40;;
77018;SDS011;66044;53.142;17.962;2023-06-19T09:18:44;7.10;;;4.30;;
77018;SDS011;66044;53.142;17.962;2023-06-19T09:21:18;7.50;;;3.60;;
77018;SDS011;66044;53.142;17.962;2023-06-19T09:23:48;7.00;;;4.00;;
77018;SDS011;66044;53.142;17.962;2023-06-19T09:26:16;6.50;;;3.40;;
77018;SDS011;66044;53.142;17.962;2023-06-19T09:28:44;6.70;;;3.90;;
77018;SDS011;66044;53.142;17.962;2023-06-19T09:31:10;7.40;;;4.00;;
77018;SDS011;66044;53.142;17.962;2023-06-19T09:33:38;7.70;;;4.00;;
77018;SDS011;66044;53.142;17.962;2023-06-19T09:36:06;6.80;;;3.70;;
77018;SDS011;66044;53.142;17.962;2023-06-19T09:38:34;6.90;;;3.70;;
77018;SDS011;66044;53.142;17.962;2023-06-19T09:41:04;6.60;;;3.60;;
77018;SDS011;66044;53.142;17.962;2023-06-19T09:44:05;7.40;;;3.40;;
77018;SDS011;66044;53.142;17.962;2023-06-19T09:46:26;6.70;;;3.30;;
77018;SDS011;66044;53.142;17.962;2023-06-19T09:49:00;7.30;;;3.30;;
77018;SDS011;66044;53.142;17.962;2023-06-19T09:51:30;6.20;;;2.90;;
77018;SDS011;66044;53.142;17.962;2023-06-19T09:53:59;6.70;;;3.50;;
77018;SDS011;66044;53.142;17.962;2023-06-19T09:56:28;7.40;;;3.90;;
77018;SDS011;66044;53.142;17.962;2023-06-19T09:58:56;6.70;;;3.70;;
77018;SDS011;66044;53.142;17.962;2023-06-19T10:01:27;7.00;;;3.40;;
77018;SDS011;66044;53.142;17.962;2023-06-19T10:04:05;6.80;;;3.50;;
77018;SDS011;66044;53.142;17.962;2023-06-19T10:06:41;7.20;;;3.40;;
77018;SDS011;66044;53.142;17.962;2023-06-19T10:09:10;7.10;;;4.00;;
77018;SDS011;66044;53.142;17.962;2023-06-19T10:11:46;6.70;;;3.70;;
77018;SDS011;66044;53.142;17.962;2023-06-19T10:14:14;7.50;;;4.30;;
77018;SDS011;66044;53.142;17.962;2023-06-19T10:16:40;8.80;;;3.90;;
77018;SDS011;66044;53.142;17.962;2023-06-19T10:19:11;8.90;;;4.20;;
77018;SDS011;66044;53.142;17.962;2023-06-19T10:21:44;7.40;;;4.10;;
77018;SDS011;66044;53.142;17.962;2023-06-19T10:24:15;8.30;;;4.10;;
77018;SDS011;66044;53.142;17.962;2023-06-19T10:27:02;7.40;;;3.60;;
77018;SDS011;66044;53.142;17.962;2023-06-19T10:29:38;6.90;;;3.90;;
77018;SDS011;66044;53.142;17.962;2023-06-19T10:32:06;6.90;;;3.70;;
77018;SDS011;66044;53.142;17.962;2023-06-19T10:34:33;7.80;;;3.90;;
77018;SDS011;66044;53.142;17.962;2023-06-19T10:37:00;7.80;;;3.80;;
77018;SDS011;66044;53.142;17.962;2023-06-19T10:39:27;7.20;;;4.20;;
77018;SDS011;66044;53.142;17.962;2023-06-19T10:41:54;7.30;;;4.20;;
77018;SDS011;66044;53.142;17.962;2023-06-19T10:44:20;10.20;;;4.40;;
77018;SDS011;66044;53.142;17.962;2023-06-19T10:46:51;7.80;;;4.20;;
77018;SDS011;66044;53.142;17.962;2023-06-19T10:49:19;7.40;;;3.80;;
77018;SDS011;66044;53.142;17.962;2023-06-19T10:51:48;7.70;;;4.10;;
77018;SDS011;66044;53.142;17.962;2023-06-19T10:54:14;7.00;;;3.90;;
77018;SDS011;66044;53.142;17.962;2023-06-19T10:56:41;8.40;;;4.20;;
77018;SDS011;66044;53.142;17.962;2023-06-19T10:59:09;9.20;;;4.40;;
77018;SDS011;66044;53.142;17.962;2023-06-19T11:01:41;7.60;;;3.90;;
77018;SDS011;66044;53.142;17.962;2023-06-19T11:04:11;7.40;;;4.30;;
77018;SDS011;66044;53.142;17.962;2023-06-19T11:06:39;7.30;;;4.60;;
77018;SDS011;66044;53.142;17.962;2023-06-19T11:09:07;8.40;;;4.10;;
77018;SDS011;66044;53.142;17.962;2023-06-19T11:11:38;7.60;;;3.90;;
77018;SDS011;66044;53.142;17.962;2023-06-19T11:14:05;8.30;;;3.70;;
77018;SDS011;66044;53.142;17.962;2023-06-19T11:16:32;6.90;;;3.30;;
77018;SDS011;66044;53.142;17.962;2023-06-19T11:19:00;7.80;;;3.60;;
77018;SDS011;66044;53.142;17.962;2023-06-19T11:21:31;9.30;;;3.80;;
77018;SDS011;66044;53.142;17.962;2023-06-19T11:24:01;7.40;;;3.50;;
77018;SDS011;66044;53.142;17.962;2023-06-19T11:26:28;6.90;;;3.40;;
77018;SDS011;66044;53.142;17.962;2023-06-19T11:28:54;7.40;;;3.70;;
77018;SDS011;66044;53.142;17.962;2023-06-19T11:31:25;7.60;;;3.70;;
77018;SDS011;66044;53.142;17.962;2023-06-19T11:33:58;6.40;;;3.60;;
77018;SDS011;66044;53.142;17.962;2023-06-19T11:36:28;7.50;;;4.20;;
77018;SDS011;66044;53.142;17.962;2023-06-19T11:38:55;6.70;;;3.70;;
77018;SDS011;66044;53.142;17.962;2023-06-19T11:41:25;7.60;;;3.50;;
77018;SDS011;66044;53.142;17.962;2023-06-19T11:44:00;6.70;;;3.70;;
77018;SDS011;66044;53.142;17.962;2023-06-19T11:46:29;7.20;;;3.50;;
77018;SDS011;66044;53.142;17.962;2023-06-19T11:49:11;7.20;;;3.70;;
77018;SDS011;66044;53.142;17.962;2023-06-19T11:51:40;7.10;;;3.50;;
77018;SDS011;66044;53.142;17.962;2023-06-19T11:54:08;8.70;;;3.30;;
77018;SDS011;66044;53.142;17.962;2023-06-19T11:56:36;7.10;;;4.10;;
77018;SDS011;66044;53.142;17.962;2023-06-19T11:59:06;7.60;;;3.60;;
77018;SDS011;66044;53.142;17.962;2023-06-19T12:01:34;6.30;;;3.30;;
77018;SDS011;66044;53.142;17.962;2023-06-19T12:04:01;6.80;;;3.70;;
77018;SDS011;66044;53.142;17.962;2023-06-19T12:06:29;7.00;;;3.30;;
77018;SDS011;66044;53.142;17.962;2023-06-19T12:08:56;6.90;;;3.70;;
77018;SDS011;66044;53.142;17.962;2023-06-19T12:11:22;7.80;;;3.70;;
77018;SDS011;66044;53.142;17.962;2023-06-19T12:13:50;7.80;;;4.00;;
77018;SDS011;66044;53.142;17.962;2023-06-19T12:16:19;6.20;;;3.20;;
77018;SDS011;66044;53.142;17.962;2023-06-19T12:18:45;6.60;;;3.50;;
77018;SDS011;66044;53.142;17.962;2023-06-19T12:21:12;7.00;;;4.00;;
77018;SDS011;66044;53.142;17.962;2023-06-19T12:23:38;7.40;;;3.90;;
77018;SDS011;66044;53.142;17.962;2023-06-19T12:26:05;7.00;;;3.80;;
77018;SDS011;66044;53.142;17.962;2023-06-19T12:28:31;8.90;;;4.40;;
77018;SDS011;66044;53.142;17.962;2023-06-19T12:30:58;7.10;;;3.90;;
77018;SDS011;66044;53.142;17.962;2023-06-19T12:33:25;7.60;;;3.50;;
77018;SDS011;66044;53.142;17.962;2023-06-19T12:35:51;7.10;;;3.90;;
77018;SDS011;66044;53.142;17.962;2023-06-19T12:38:17;7.20;;;3.80;;
77018;SDS011;66044;53.142;17.962;2023-06-19T12:40:44;6.70;;;3.60;;
77018;SDS011;66044;53.142;17.962;2023-06-19T12:43:11;6.90;;;3.80;;
77018;SDS011;66044;53.142;17.962;2023-06-19T12:45:37;7.70;;;3.70;;
77018;SDS011;66044;53.142;17.962;2023-06-19T12:48:04;9.20;;;4.00;;
77018;SDS011;66044;53.142;17.962;2023-06-19T12:50:31;8.20;;;3.80;;
77018;SDS011;66044;53.142;17.962;2023-06-19T12:52:57;7.10;;;3.80;;
77018;SDS011;66044;53.142;17.962;2023-06-19T12:55:24;6.60;;;3.30;;
77018;SDS011;66044;53.142;17.962;2023-06-19T12:57:50;7.30;;;3.40;;
77018;SDS011;66044;53.142;17.962;2023-06-19T13:00:17;6.20;;;3.40;;
77018;SDS011;66044;53.142;17.962;2023-06-19T13:02:43;6.70;;;3.80;;
77018;SDS011;66044;53.142;17.962;2023-06-19T13:05:12;8.50;;;4.30;;
77018;SDS011;66044;53.142;17.962;2023-06-19T13:07:39;8.50;;;4.00;;
77018;SDS011;66044;53.142;17.962;2023-06-19T13:10:05;7.20;;;3.60;;
77018;SDS011;66044;53.142;17.962;2023-06-19T13:12:32;6.90;;;3.50;;
77018;SDS011;66044;53.142;17.962;2023-06-19T13:14:59;6.90;;;3.90;;
77018;SDS011;66044;53.142;17.962;2023-06-19T13:17:25;8.00;;;4.60;;
77018;SDS011;66044;53.142;17.962;2023-06-19T13:19:52;7.50;;;4.20;;
77018;SDS011;66044;53.142;17.962;2023-06-19T13:22:18;8.70;;;4.40;;
77018;SDS011;66044;53.142;17.962;2023-06-19T13:24:45;8.90;;;4.40;;
77018;SDS011;66044;53.142;17.962;2023-06-19T13:27:11;7.00;;;4.40;;
77018;SDS011;66044;53.142;17.962;2023-06-19T13:29:37;7.60;;;4.40;;
77018;SDS011;66044;53.142;17.962;2023-06-19T13:32:06;7.50;;;4.40;;
77018;SDS011;66044;53.142;17.962;2023-06-19T13:34:32;7.80;;;4.50;;
77018;SDS011;66044;53.142;17.962;2023-06-19T13:36:59;7.50;;;4.40;;
77018;SDS011;66044;53.142;17.962;2023-06-19T13:39:25;8.30;;;4.50;;
77018;SDS011;66044;53.142;17.962;2023-06-19T13:41:52;8.00;;;3.90;;
77018;SDS011;66044;53.142;17.962;2023-06-19T13:44:18;8.40;;;3.90;;
77018;SDS011;66044;53.142;17.962;2023-06-19T13:46:45;7.10;;;3.70;;
77018;SDS011;66044;53.142;17.962;2023-06-19T13:49:11;8.10;;;4.00;;
77018;SDS011;66044;53.142;17.962;2023-06-19T13:51:39;6.70;;;3.60;;
77018;SDS011;66044;53.142;17.962;2023-06-19T13:54:06;6.80;;;3.60;;
77018;SDS011;66044;53.142;17.962;2023-06-19T13:56:32;6.70;;;3.50;;
77018;SDS011;66044;53.142;17.962;2023-06-19T13:58:59;6.50;;;3.30;;
77018;SDS011;66044;53.142;17.962;2023-06-19T14:01:25;7.90;;;3.30;;
77018;SDS011;66044;53.142;17.962;2023-06-19T14:03:52;6.70;;;3.60;;
77018;SDS011;66044;53.142;17.962;2023-06-19T14:06:18;7.20;;;3.80;;
77018;SDS011;66044;53.142;17.962;2023-06-19T14:08:45;6.70;;;3.30;;
77018;SDS011;66044;53.142;17.962;2023-06-19T14:11:11;6.70;;;3.50;;
77018;SDS011;66044;53.142;17.962;2023-06-19T14:13:38;6.60;;;3.50;;
77018;SDS011;66044;53.142;17.962;2023-06-19T14:16:04;6.20;;;3.30;;
77018;SDS011;66044;53.142;17.962;2023-06-19T14:18:31;7.80;;;3.90;;
77018;SDS011;66044;53.142;17.962;2023-06-19T14:20:57;6.90;;;3.70;;
77018;SDS011;66044;53.142;17.962;2023-06-19T14:23:24;7.00;;;3.60;;
77018;SDS011;66044;53.142;17.962;2023-06-19T14:25:50;6.50;;;3.50;;
77018;SDS011;66044;53.142;17.962;2023-06-19T14:28:17;7.50;;;4.10;;
77018;SDS011;66044;53.142;17.962;2023-06-19T14:30:44;6.50;;;3.60;;
77018;SDS011;66044;53.142;17.962;2023-06-19T14:33:10;6.90;;;3.70;;